Aérodrome :
LOGIN :

S'inscrire | Disclaimer

   EN    FR    IT 

 










Légende :    VFR   VFR Marginal   IFR   IFR Intensif   IFR Très Intensif
Visi : 
Plafond : 
>= 8 km
>= 3000ft
5 à 8 km
1000 à 3000 ft
1500m à 5 km
500 à 1000 ft
800 à 1500m
200 à 500 ft
< 800m
< 200 ft
Symboles :   Orages  Brouillard  Fortes neiges  Fortes précipitations  Vent > 20 kt
SIGMETs :   Divers  Orages  Givrage  Turbulence  Onde Orograph.  Cendres Volcan.






- Altitude de l'aérodrome : 1090 ft
- Code IATA : CFE


LFLC - Clermont-Ferrand Auvergne

DERNIER METAR :
  • 260530Z AUTO 17005KT 130V210 CAVOK 02/01 Q1018 TEMPO SHRA BKN040TCU

METARs EXPIRÉS :
  • 260500Z AUTO VRB02KT CAVOK 02/01 Q1018 TEMPO SHRA BKN040TCU
  • 260430Z AUTO VRB03KT CAVOK 02/01 Q1017 TEMPO SHRA BKN040TCU
  • 260400Z AUTO VRB03KT CAVOK 03/01 Q1017 TEMPO SHRA BKN040TCU
  • 260330Z AUTO VRB02KT CAVOK 04/02 Q1017 TEMPO SHRA BKN040TCU
  • 260300Z AUTO VRB02KT CAVOK 03/01 Q1018 TEMPO SHRA BKN040TCU
  • 260230Z AUTO 15004KT 130V200 CAVOK 03/01 Q1018 TEMPO SHRA BKN040TCU

TAF TAF LFLC
Valide du 26 à 03h jusqu'au 27 à 03h UTC


260200Z 2603/2703 18009KT CAVOK
TEMPO 2603/2616 -RA BKN050
PROB30
TEMPO 2603/2616 SHRA BKN040TCU
ATIS : +33 4 73 62 74 38



MET'MAP, la Météo Aéronautique d'un coup d'oeil ! - Copyright ORBIFLY Décembre 2007 - Disclaimer

ORBIFLY MET'MAP TEAM :

Programmation & Développement : Alexandra Zaïnal
Sur une idée originale de : Baudouin d'Aumeries
Assistance à la programmation : Marc-Olivier Méhu
Soutien technique & logistique : Manuel Goepfert

Contact : metmap@orbifly.com




SOURCES & CREDITS :

   NOAA